Altus, Arkansas
Current Conditions -  °F | °C
As of 5:53 PM on Thursday 27 Nov 2014 (Local Time) from KFSM Reporting Station
Clear Clear  
Wind Chill: 39°   Ceiling: Unl
Heat Index: 42°   Visibility: 10mi
Dew Point: 27°   Wind: 5mph
Humidity: 55%   Direction: 70°ENE
Pressure: 30.42"   Gusts: NA
Location:  35.45°N, 93.76°W
Report Text: KFSM 272353Z 07004KT 10SM CLR 06/M03 A3042 RMK AO2 SLP305 T00561028 10100 20050 57010
Loading
Personal Weather Stations






























Interactive Weather Map New forecast layout! Learn more

10-Day Weather Forecast

Advertisements
Track Severe Weather on mobile